createdAt,value
2023-01-17T00:02:47.816Z,100.00
2023-01-17T00:06:08.920Z,100.00
2023-01-17T00:09:31.251Z,100.00
2023-01-17T00:12:36.590Z,100.00
2023-01-17T00:15:40.191Z,100.00
2023-01-17T00:19:03.143Z,100.00
2023-01-17T00:22:29.017Z,100.00
2023-01-17T00:25:58.255Z,100.00
2023-01-17T00:29:00.917Z,100.00
2023-01-17T00:32:03.962Z,100.00
2023-01-17T00:35:08.073Z,100.00
2023-01-17T00:38:13.970Z,100.00
2023-01-17T00:41:16.663Z,100.00
2023-01-17T00:44:38.166Z,100.00
2023-01-17T00:47:59.201Z,100.00
2023-01-17T00:51:22.260Z,100.00
2023-01-17T00:54:43.476Z,100.00
2023-01-17T00:58:04.982Z,100.00
2023-01-17T01:01:27.913Z,100.00
2023-01-17T01:04:50.104Z,100.00
2023-01-17T01:08:11.621Z,100.00
2023-01-17T01:11:36.120Z,100.00
2023-01-17T01:14:57.691Z,100.00
2023-01-17T01:18:27.140Z,100.00
2023-01-17T01:21:48.690Z,100.00
2023-01-17T01:25:10.693Z,100.00
2023-01-17T01:28:34.382Z,100.00
2023-01-17T01:31:56.422Z,100.00
2023-01-17T01:34:59.301Z,100.00
2023-01-17T01:38:03.000Z,100.00
2023-01-17T01:41:06.513Z,100.00
2023-01-17T01:44:47.233Z,100.00
2023-01-17T01:47:54.089Z,100.00
2023-01-17T01:50:57.190Z,100.00
2023-01-17T01:54:07.578Z,100.00
2023-01-17T01:57:15.458Z,100.00
2023-01-17T02:00:24.944Z,100.00
2023-01-17T02:03:33.427Z,100.00
2023-01-17T02:06:41.836Z,100.00
2023-01-17T02:09:45.203Z,100.00
2023-01-17T02:12:48.235Z,100.00
2023-01-17T02:16:09.595Z,100.00
2023-01-17T02:19:53.799Z,100.00
2023-01-17T02:23:18.228Z,100.00
2023-01-17T02:26:31.429Z,100.00
2023-01-17T02:30:03.405Z,100.00
2023-01-17T02:33:08.631Z,100.00
2023-01-17T02:36:23.764Z,100.00
2023-01-17T02:39:37.537Z,100.00
2023-01-17T02:42:50.301Z,100.00
2023-01-17T02:45:52.880Z,100.00
2023-01-17T02:48:57.879Z,100.00
2023-01-17T02:52:19.190Z,100.00
2023-01-17T02:55:41.123Z,100.00
2023-01-17T02:59:03.450Z,100.00
2023-01-17T03:02:41.758Z,100.00
2023-01-17T03:06:11.870Z,100.00
2023-01-17T03:09:17.298Z,100.00
2023-01-17T03:12:21.445Z,100.00
2023-01-17T03:15:24.698Z,100.00
2023-01-17T03:18:27.677Z,100.00
2023-01-17T03:21:30.923Z,100.00
2023-01-17T03:24:33.452Z,100.00
2023-01-17T03:27:36.529Z,100.00
2023-01-17T03:30:39.511Z,100.00
2023-01-17T03:33:42.547Z,100.00
2023-01-17T03:37:05.368Z,100.00
2023-01-17T03:40:30.785Z,100.00
2023-01-17T03:43:34.595Z,100.00
2023-01-17T03:46:37.961Z,100.00
2023-01-17T03:49:40.818Z,100.00
2023-01-17T03:52:43.760Z,100.00
2023-01-17T03:55:47.018Z,100.00
2023-01-17T03:58:49.949Z,100.00
2023-01-17T04:01:52.603Z,100.00
2023-01-17T04:04:55.555Z,100.00
2023-01-17T04:07:58.447Z,100.00
2023-01-17T04:11:01.383Z,100.00
2023-01-17T04:14:04.109Z,100.00
2023-01-17T04:17:10.744Z,100.00
2023-01-17T04:20:26.994Z,100.00
2023-01-17T04:23:32.741Z,100.00
2023-01-17T04:26:35.478Z,100.00
2023-01-17T04:29:38.374Z,100.00
2023-01-17T04:32:41.658Z,100.00
2023-01-17T04:35:45.692Z,100.00
2023-01-17T04:38:48.346Z,100.00
2023-01-17T04:41:57.887Z,100.00
2023-01-17T04:45:26.021Z,100.00
2023-01-17T04:48:31.428Z,100.00
2023-01-17T04:51:34.348Z,100.00
2023-01-17T04:54:37.929Z,100.00
2023-01-17T04:57:44.633Z,100.00
2023-01-17T05:00:56.010Z,100.00
2023-01-17T05:04:02.431Z,100.00
2023-01-17T05:07:07.018Z,100.00
2023-01-17T05:10:13.265Z,100.00
2023-01-17T05:13:18.552Z,100.00
2023-01-17T05:16:21.117Z,100.00
2023-01-17T05:19:25.433Z,100.00
2023-01-17T05:22:28.574Z,100.00
2023-01-17T05:25:33.576Z,100.00
2023-01-17T05:28:39.959Z,100.00
2023-01-17T05:31:42.868Z,100.00
2023-01-17T05:34:45.385Z,100.00
2023-01-17T05:37:49.804Z,100.00
2023-01-17T05:40:52.965Z,100.00
2023-01-17T05:43:55.854Z,100.00
2023-01-17T05:46:58.576Z,100.00
2023-01-17T05:50:01.383Z,100.00
2023-01-17T05:53:07.281Z,100.00
2023-01-17T05:56:10.084Z,100.00
2023-01-17T05:59:14.175Z,100.00
2023-01-17T06:02:17.602Z,100.00
2023-01-17T06:05:22.108Z,100.00
2023-01-17T06:08:29.424Z,100.00
2023-01-17T06:11:35.667Z,100.00
2023-01-17T06:14:39.007Z,100.00
2023-01-17T06:17:42.214Z,100.00
2023-01-17T06:20:45.760Z,100.00
2023-01-17T06:23:49.663Z,100.00
2023-01-17T06:26:52.171Z,100.00
2023-01-17T06:29:55.341Z,100.00
2023-01-17T06:32:58.240Z,100.00
2023-01-17T06:36:05.719Z,100.00
2023-01-17T06:39:10.229Z,100.00
2023-01-17T06:42:14.170Z,100.00
2023-01-17T06:45:17.193Z,100.00
2023-01-17T06:48:20.125Z,100.00
2023-01-17T06:51:22.766Z,100.00
2023-01-17T06:54:25.781Z,100.00
2023-01-17T06:57:28.919Z,100.00
2023-01-17T07:00:35.277Z,100.00
2023-01-17T07:03:38.337Z,100.00
2023-01-17T07:06:41.130Z,100.00
2023-01-17T07:09:44.118Z,100.00
2023-01-17T07:12:47.135Z,100.00
2023-01-17T07:15:49.940Z,100.00
2023-01-17T07:18:54.777Z,100.00
2023-01-17T07:21:57.675Z,100.00
2023-01-17T07:25:02.090Z,100.00
2023-01-17T07:28:04.836Z,100.00
2023-01-17T07:31:08.414Z,100.00
2023-01-17T07:34:11.577Z,100.00
2023-01-17T07:37:15.459Z,100.00
2023-01-17T07:40:20.045Z,100.00
2023-01-17T07:43:23.202Z,100.00
2023-01-17T07:46:25.814Z,100.00
2023-01-17T07:49:28.688Z,100.00
2023-01-17T07:52:31.537Z,100.00
2023-01-17T07:55:37.567Z,100.00
2023-01-17T07:58:40.333Z,100.00
2023-01-17T08:01:46.368Z,100.00
2023-01-17T08:04:49.891Z,100.00
2023-01-17T08:07:52.442Z,100.00
2023-01-17T08:10:55.889Z,100.00
2023-01-17T08:13:59.541Z,100.00
2023-01-17T08:17:08.151Z,100.00
2023-01-17T08:20:11.089Z,100.00
2023-01-17T08:23:14.056Z,100.00
2023-01-17T08:26:22.302Z,100.00
2023-01-17T08:29:25.423Z,100.00
2023-01-17T08:32:28.217Z,100.00
2023-01-17T08:35:31.553Z,100.00
2023-01-17T08:38:34.139Z,100.00
2023-01-17T08:41:37.151Z,100.00
2023-01-17T08:44:40.093Z,100.00
2023-01-17T08:47:43.236Z,100.00
2023-01-17T08:50:46.311Z,100.00
2023-01-17T08:53:49.142Z,100.00
2023-01-17T08:56:54.124Z,100.00
2023-01-17T08:59:57.082Z,100.00
2023-01-17T09:02:59.835Z,99.66
2023-01-17T09:06:03.687Z,99.07
2023-01-17T09:09:07.381Z,100.00
2023-01-17T09:12:10.751Z,97.77
2023-01-17T09:15:17.799Z,93.22
2023-01-17T09:18:21.807Z,87.59
2023-01-17T09:21:25.598Z,86.34
2023-01-17T09:24:28.970Z,83.27
2023-01-17T09:27:31.688Z,81.36
2023-01-17T09:30:34.676Z,81.44
2023-01-17T09:33:42.705Z,83.46
2023-01-17T09:36:46.120Z,82.00
2023-01-17T09:39:48.860Z,79.46
2023-01-17T09:42:55.537Z,80.60
2023-01-17T09:45:59.405Z,80.52
2023-01-17T09:49:26.786Z,75.71
2023-01-17T09:52:30.920Z,75.27
2023-01-17T09:55:44.301Z,75.90
2023-01-17T09:58:52.488Z,74.56
2023-01-17T10:02:19.167Z,69.75
2023-01-17T10:05:31.254Z,73.21
2023-01-17T10:08:45.377Z,70.36
2023-01-17T10:12:12.984Z,69.34
2023-01-17T10:15:33.434Z,68.61
2023-01-17T10:19:19.124Z,68.37
2023-01-17T10:22:43.521Z,66.88
2023-01-17T10:25:52.396Z,65.13
2023-01-17T10:29:01.621Z,67.28
2023-01-17T10:32:04.801Z,62.92
2023-01-17T10:35:26.996Z,61.51
2023-01-17T10:38:35.000Z,61.26
2023-01-17T10:41:42.468Z,61.14
2023-01-17T10:45:28.397Z,59.03
2023-01-17T10:48:33.919Z,62.70
2023-01-17T10:51:43.961Z,60.23
2023-01-17T10:55:08.759Z,59.51
2023-01-17T10:58:13.094Z,62.32
2023-01-17T11:01:24.006Z,61.93
2023-01-17T11:04:35.878Z,58.38
2023-01-17T11:07:40.045Z,58.97
2023-01-17T11:10:55.551Z,60.31
2023-01-17T11:14:01.413Z,59.27
2023-01-17T11:17:06.988Z,61.68
2023-01-17T11:20:34.004Z,56.89
2023-01-17T11:23:43.246Z,57.43
2023-01-17T11:26:49.571Z,57.88
2023-01-17T11:30:16.058Z,60.47
2023-01-17T11:33:48.080Z,58.50
2023-01-17T11:37:09.704Z,57.59
2023-01-17T11:40:15.575Z,60.67
2023-01-17T11:43:26.379Z,56.88
2023-01-17T11:46:29.923Z,55.99
2023-01-17T11:49:32.965Z,56.44
2023-01-17T11:52:39.155Z,56.51
2023-01-17T11:55:53.883Z,55.83
2023-01-17T11:59:37.524Z,53.84
2023-01-17T12:02:50.134Z,54.46
2023-01-17T12:06:02.603Z,55.10
2023-01-17T12:09:24.080Z,57.43
2023-01-17T12:12:51.472Z,56.05
2023-01-17T12:16:00.352Z,58.41
2023-01-17T12:19:28.504Z,58.75
2023-01-17T12:22:58.035Z,57.91
2023-01-17T12:26:19.823Z,59.24
2023-01-17T12:29:41.553Z,60.25
2023-01-17T12:32:50.259Z,64.16
2023-01-17T12:35:59.094Z,64.22
2023-01-17T12:39:07.867Z,65.23
2023-01-17T12:42:24.239Z,66.56
2023-01-17T12:45:44.510Z,68.01
2023-01-17T12:48:52.519Z,67.24
2023-01-17T12:52:05.889Z,70.55
2023-01-17T12:55:25.873Z,71.75
2023-01-17T12:58:47.742Z,70.83
2023-01-17T13:01:58.207Z,72.54
2023-01-17T13:05:15.317Z,75.20
2023-01-17T13:08:36.628Z,74.95
2023-01-17T13:11:53.218Z,74.40
2023-01-17T13:15:37.836Z,75.65
2023-01-17T13:19:37.909Z,75.69
2023-01-17T13:23:44.169Z,76.36
2023-01-17T13:27:14.143Z,75.79
2023-01-17T13:30:50.374Z,75.17
2023-01-17T13:34:25.931Z,78.10
2023-01-17T13:38:21.894Z,80.27
2023-01-17T13:41:59.920Z,84.48
2023-01-17T13:49:42.380Z,83.88
2023-01-17T13:52:46.480Z,84.99
2023-01-17T13:55:53.583Z,85.67
2023-01-17T13:59:02.181Z,81.03
2023-01-17T14:02:43.403Z,80.20
2023-01-17T14:05:49.276Z,78.60
2023-01-17T14:08:52.785Z,81.45
2023-01-17T14:12:04.632Z,81.36
2023-01-17T14:15:21.124Z,85.84
2023-01-17T14:18:45.756Z,85.51
2023-01-17T14:22:31.541Z,85.47
2023-01-17T14:25:41.463Z,90.30
2023-01-17T14:28:46.643Z,88.98
2023-01-17T14:31:50.408Z,87.28
2023-01-17T14:34:57.200Z,85.04
2023-01-17T14:38:03.320Z,86.27
2023-01-17T14:41:09.721Z,85.09
2023-01-17T14:44:15.106Z,84.30
2023-01-17T14:47:17.890Z,87.87
2023-01-17T14:50:38.404Z,89.03
2023-01-17T14:54:08.297Z,88.08
2023-01-17T14:57:35.578Z,89.48
2023-01-17T15:01:15.711Z,88.94
2023-01-17T15:04:40.078Z,90.13
2023-01-17T15:07:54.038Z,89.84
2023-01-17T15:11:05.437Z,93.22
2023-01-17T15:14:08.440Z,92.51
2023-01-17T15:17:24.501Z,93.14
2023-01-17T15:20:40.382Z,94.65
2023-01-17T15:24:37.415Z,93.88
2023-01-17T15:27:43.135Z,93.06
2023-01-17T15:31:04.475Z,92.97
2023-01-17T15:34:14.610Z,92.09
2023-01-17T15:37:39.883Z,94.11
2023-01-17T15:40:43.761Z,96.69
2023-01-17T15:43:50.235Z,97.09
2023-01-17T15:46:56.780Z,96.49
2023-01-17T15:50:01.287Z,96.52
2023-01-17T15:53:07.127Z,96.21
2023-01-17T15:56:33.557Z,95.50
2023-01-17T15:59:45.571Z,96.57
2023-01-17T16:02:58.989Z,97.80
2023-01-17T16:10:35.828Z,98.47
2023-01-17T16:17:54.275Z,97.95
2023-01-17T16:21:01.595Z,98.76
2023-01-17T16:24:09.701Z,98.11
2023-01-17T16:31:53.798Z,98.62
2023-01-17T16:35:15.091Z,100.00
2023-01-17T16:38:21.577Z,100.00
2023-01-17T16:41:28.045Z,100.00
2023-01-17T16:44:33.603Z,100.00
2023-01-17T16:47:37.245Z,100.00
2023-01-17T16:50:50.880Z,100.00
2023-01-17T16:53:53.892Z,100.00
2023-01-17T16:56:56.392Z,100.00
2023-01-17T16:59:59.752Z,100.00
2023-01-17T17:03:02.454Z,100.00
2023-01-17T17:06:05.611Z,100.00
2023-01-17T17:09:08.423Z,100.00
2023-01-17T17:12:11.793Z,100.00
2023-01-17T17:15:15.239Z,100.00
2023-01-17T17:18:18.480Z,100.00
2023-01-17T17:21:21.088Z,100.00
2023-01-17T17:24:23.847Z,100.00
2023-01-17T17:27:27.865Z,100.00
2023-01-17T17:30:31.673Z,100.00
2023-01-17T17:33:35.370Z,100.00
2023-01-17T17:36:42.719Z,100.00
2023-01-17T17:39:45.342Z,100.00
2023-01-17T17:42:48.892Z,100.00
2023-01-17T17:45:51.483Z,100.00
2023-01-17T17:48:55.554Z,100.00
2023-01-17T17:52:06.930Z,100.00
2023-01-17T17:55:11.055Z,100.00
2023-01-17T17:58:13.785Z,100.00
2023-01-17T18:01:16.921Z,100.00
2023-01-17T18:04:22.201Z,100.00
2023-01-17T18:07:24.735Z,100.00
2023-01-17T18:10:28.259Z,100.00
2023-01-17T18:13:32.776Z,100.00
2023-01-17T18:16:41.634Z,100.00
2023-01-17T18:19:51.010Z,100.00
2023-01-17T18:23:14.729Z,100.00
2023-01-17T18:26:26.272Z,100.00
2023-01-17T18:29:29.200Z,100.00
2023-01-17T18:32:32.470Z,100.00
2023-01-17T18:35:35.407Z,100.00
2023-01-17T18:38:39.885Z,100.00
2023-01-17T18:41:43.698Z,100.00
2023-01-17T18:45:05.923Z,100.00
2023-01-17T18:48:09.149Z,100.00
2023-01-17T18:51:15.069Z,100.00
2023-01-17T18:54:19.576Z,100.00
2023-01-17T18:57:22.174Z,100.00
2023-01-17T19:00:25.711Z,100.00
2023-01-17T19:03:31.716Z,100.00
2023-01-17T19:06:37.814Z,100.00
2023-01-17T19:09:40.690Z,100.00
2023-01-17T19:12:49.948Z,100.00
2023-01-17T19:15:53.321Z,100.00
2023-01-17T19:19:01.731Z,100.00
2023-01-17T19:22:05.105Z,100.00
2023-01-17T19:28:37.830Z,100.00
2023-01-17T19:52:44.718Z,100.00
2023-01-17T19:55:50.324Z,100.00
2023-01-17T19:58:54.345Z,100.00
2023-01-17T20:02:01.087Z,100.00
2023-01-17T20:05:04.836Z,100.00
2023-01-17T20:08:09.831Z,100.00
2023-01-17T20:11:22.223Z,100.00
2023-01-17T20:14:26.896Z,100.00
2023-01-17T20:17:29.991Z,100.00
2023-01-17T20:20:34.312Z,100.00
2023-01-17T20:23:39.725Z,100.00
2023-01-17T20:26:44.191Z,100.00
2023-01-17T20:29:50.144Z,100.00
2023-01-17T20:32:52.932Z,100.00
2023-01-17T20:36:10.227Z,100.00
2023-01-17T20:40:15.907Z,100.00
2023-01-17T20:43:30.489Z,100.00
2023-01-17T20:46:40.618Z,100.00
2023-01-17T20:49:46.337Z,100.00
2023-01-17T20:52:50.020Z,100.00
2023-01-17T20:55:58.594Z,100.00
2023-01-17T20:59:04.117Z,100.00
2023-01-17T21:02:10.728Z,100.00
2023-01-17T21:05:14.661Z,100.00
2023-01-17T21:08:18.702Z,100.00
2023-01-17T21:11:24.692Z,100.00
2023-01-17T21:14:28.935Z,100.00
2023-01-17T21:17:33.740Z,100.00
2023-01-17T21:20:37.820Z,100.00
2023-01-17T21:23:43.474Z,100.00
2023-01-17T21:26:46.462Z,100.00
2023-01-17T21:29:49.651Z,100.00
2023-01-17T21:32:52.189Z,100.00
2023-01-17T21:35:55.281Z,100.00
2023-01-17T21:38:59.393Z,100.00
2023-01-17T21:42:02.341Z,100.00
2023-01-17T21:45:05.226Z,100.00
2023-01-17T21:48:14.654Z,100.00
2023-01-17T21:51:17.699Z,100.00
2023-01-17T21:55:00.898Z,100.00
2023-01-17T21:58:22.230Z,100.00
2023-01-17T22:01:29.169Z,100.00
2023-01-17T22:04:34.485Z,100.00
2023-01-17T22:07:38.943Z,100.00
2023-01-17T22:10:45.440Z,100.00
2023-01-17T22:13:48.128Z,100.00
2023-01-17T22:16:52.549Z,100.00
2023-01-17T22:20:00.922Z,100.00
2023-01-17T22:23:06.827Z,100.00
2023-01-17T22:26:16.143Z,100.00
2023-01-17T22:29:20.698Z,100.00
2023-01-17T22:32:23.797Z,100.00
2023-01-17T22:35:29.763Z,100.00
2023-01-17T22:38:37.720Z,100.00
2023-01-17T22:41:43.505Z,100.00
2023-01-17T22:44:47.754Z,100.00
2023-01-17T22:47:58.302Z,100.00
2023-01-17T22:51:11.402Z,100.00
2023-01-17T22:54:19.561Z,100.00
2023-01-17T22:57:23.439Z,100.00
2023-01-17T23:09:53.597Z,100.00
2023-01-17T23:12:56.847Z,100.00
2023-01-17T23:16:23.525Z,100.00
2023-01-17T23:19:28.819Z,100.00
2023-01-17T23:22:32.018Z,100.00
2023-01-17T23:25:37.521Z,100.00
2023-01-17T23:28:40.151Z,100.00
2023-01-17T23:31:43.062Z,100.00
2023-01-17T23:34:47.757Z,100.00
2023-01-17T23:38:09.137Z,100.00
2023-01-17T23:41:30.119Z,100.00
2023-01-17T23:44:33.170Z,100.00
2023-01-17T23:47:35.708Z,100.00
2023-01-17T23:50:41.558Z,100.00
2023-01-17T23:53:44.217Z,100.00
2023-01-17T23:56:47.083Z,100.00
2023-01-17T23:59:49.596Z,100.00
